createdAt,value
2023-01-10T00:03:53.176Z,36.00
2023-01-10T00:09:06.904Z,37.72
2023-01-10T00:14:21.158Z,38.20
2023-01-10T00:16:47.926Z,37.60
2023-01-10T00:19:18.227Z,36.42
2023-01-10T00:21:44.972Z,36.03
2023-01-10T00:24:12.333Z,37.05
2023-01-10T00:29:27.951Z,35.53
2023-01-10T00:31:55.178Z,34.13
2023-01-10T00:34:21.943Z,34.30
2023-01-10T00:36:48.908Z,33.13
2023-01-10T00:42:03.539Z,31.35
2023-01-10T00:47:17.224Z,29.35
2023-01-10T00:52:30.798Z,30.45
2023-01-10T00:54:57.665Z,30.80
2023-01-10T00:57:24.449Z,31.80
2023-01-10T00:59:51.193Z,29.55
2023-01-10T01:02:18.047Z,29.23
2023-01-10T01:04:44.840Z,30.80
2023-01-10T01:07:11.634Z,30.08
2023-01-10T01:09:38.396Z,29.85
2023-01-10T01:12:05.286Z,29.77
2023-01-10T01:14:32.053Z,29.20
2023-01-10T01:16:58.796Z,28.85
2023-01-10T01:19:25.603Z,29.55
2023-01-10T01:21:52.363Z,29.70
2023-01-10T01:24:19.151Z,29.03
2023-01-10T01:26:45.914Z,27.20
2023-01-10T01:29:12.638Z,28.40
2023-01-10T01:31:39.394Z,28.15
2023-01-10T01:36:52.890Z,26.67
2023-01-10T01:42:06.909Z,26.25
2023-01-10T01:47:27.421Z,27.25
2023-01-10T01:52:42.229Z,26.92
2023-01-10T01:57:59.155Z,27.30
2023-01-10T02:03:14.287Z,28.15
2023-01-10T02:08:29.799Z,27.80
2023-01-10T02:11:09.434Z,27.55
2023-01-10T02:13:42.966Z,26.30
2023-01-10T02:16:10.101Z,26.88
2023-01-10T02:18:40.451Z,27.27
2023-01-10T02:30:53.434Z,25.90
2023-01-10T02:33:38.233Z,25.85
2023-01-10T02:39:16.037Z,24.65
2023-01-10T02:41:53.035Z,24.95
2023-01-10T02:47:42.167Z,23.48
2023-01-10T02:50:49.219Z,24.73
2023-01-10T02:53:22.598Z,22.77
2023-01-10T02:56:16.904Z,22.88
2023-01-10T02:59:21.257Z,23.52
2023-01-10T03:02:21.265Z,23.15
2023-01-10T03:05:14.697Z,23.05
2023-01-10T03:10:52.343Z,22.10
2023-01-10T03:13:29.962Z,21.02
2023-01-10T03:15:59.847Z,20.40
2023-01-10T03:18:50.089Z,21.30
2023-01-10T03:21:18.893Z,20.30
2023-01-10T03:27:13.152Z,19.40
2023-01-10T03:29:51.502Z,18.60
2023-01-10T03:32:23.720Z,18.08
2023-01-10T03:34:50.649Z,17.35
2023-01-10T03:37:36.612Z,16.27
2023-01-10T03:40:22.863Z,16.80
2023-01-10T03:43:01.365Z,16.65
2023-01-10T03:45:33.728Z,16.08
2023-01-10T03:50:52.331Z,14.80
2023-01-10T03:56:07.358Z,11.52
2023-01-10T04:01:20.952Z,11.13
2023-01-10T04:06:34.563Z,10.70
2023-01-10T04:09:01.346Z,11.60
2023-01-10T04:11:28.135Z,10.50
2023-01-10T04:13:54.932Z,11.55
2023-01-10T04:16:21.729Z,10.95
2023-01-10T04:18:48.625Z,11.00
2023-01-10T04:21:15.499Z,11.50
2023-01-10T04:23:42.283Z,12.32
2023-01-10T04:26:09.352Z,12.40
2023-01-10T04:28:36.093Z,12.00
2023-01-10T04:31:02.815Z,12.32
2023-01-10T04:33:29.744Z,11.75
2023-01-10T04:35:56.521Z,11.87
2023-01-10T04:38:23.297Z,10.98
2023-01-10T04:40:57.312Z,11.50
2023-01-10T04:43:26.904Z,11.60
2023-01-10T04:48:40.359Z,11.57
2023-01-10T04:51:07.264Z,11.32
2023-01-10T04:53:34.016Z,10.23
2023-01-10T04:56:06.152Z,11.15
2023-01-10T05:01:23.943Z,10.70
2023-01-10T05:06:38.348Z,9.90
2023-01-10T05:11:52.354Z,10.35
2023-01-10T05:14:19.123Z,10.27
2023-01-10T05:16:45.978Z,11.20
2023-01-10T05:19:12.946Z,10.30
2023-01-10T05:21:39.715Z,9.65
2023-01-10T05:24:06.853Z,10.60
2023-01-10T05:26:33.703Z,10.60
2023-01-10T05:29:00.482Z,9.83
2023-01-10T05:31:27.273Z,10.10
2023-01-10T05:33:54.047Z,10.30
2023-01-10T05:36:20.886Z,12.03
2023-01-10T05:38:47.687Z,10.13
2023-01-10T05:41:14.440Z,11.30
2023-01-10T05:43:41.330Z,11.17
2023-01-10T05:46:08.285Z,10.90
2023-01-10T05:48:35.471Z,11.55
2023-01-10T05:51:02.267Z,11.10
2023-01-10T05:53:29.138Z,11.40
2023-01-10T05:55:58.452Z,11.13
2023-01-10T05:58:25.703Z,11.40
2023-01-10T06:00:54.637Z,11.50
2023-01-10T06:03:21.433Z,11.00
2023-01-10T06:05:49.002Z,11.60
2023-01-10T06:08:16.777Z,11.68
2023-01-10T06:10:43.947Z,11.63
2023-01-10T06:13:10.859Z,11.68
2023-01-10T06:15:37.749Z,12.13
2023-01-10T06:18:04.773Z,19.23
2023-01-10T06:20:31.809Z,12.30
2023-01-10T06:22:58.679Z,12.67
2023-01-10T06:25:25.515Z,12.00
2023-01-10T06:27:52.279Z,12.55
2023-01-10T06:30:19.096Z,12.75
2023-01-10T06:32:45.892Z,11.20
2023-01-10T06:35:12.666Z,11.20
2023-01-10T06:40:27.438Z,11.15
2023-01-10T06:45:40.999Z,30.80
2023-01-10T06:50:54.502Z,10.70
2023-01-10T06:53:21.247Z,10.60
2023-01-10T06:55:47.985Z,10.43
2023-01-10T06:58:14.726Z,9.85
2023-01-10T07:00:41.508Z,10.65
2023-01-10T07:03:09.799Z,10.70
2023-01-10T07:05:36.544Z,9.90
2023-01-10T07:08:03.326Z,9.85
2023-01-10T07:10:30.102Z,9.80
2023-01-10T07:12:57.773Z,9.30
2023-01-10T07:15:25.492Z,11.60
2023-01-10T07:17:52.244Z,15.27
2023-01-10T07:20:19.784Z,14.38
2023-01-10T07:25:44.276Z,8.85
2023-01-10T07:31:02.016Z,9.70
2023-01-10T07:36:16.784Z,10.43
2023-01-10T07:38:43.520Z,8.85
2023-01-10T07:41:10.711Z,8.40
2023-01-10T07:43:37.616Z,8.20
2023-01-10T07:46:06.687Z,8.30
2023-01-10T07:48:33.613Z,8.60
2023-01-10T07:51:01.954Z,8.10
2023-01-10T07:53:29.634Z,8.40
2023-01-10T07:56:01.061Z,8.20
2023-01-10T07:58:28.718Z,8.57
2023-01-10T08:03:46.967Z,8.38
2023-01-10T08:06:16.570Z,8.80
2023-01-10T08:08:43.470Z,9.10
2023-01-10T08:11:10.242Z,8.95
2023-01-10T08:13:37.024Z,8.60
2023-01-10T08:16:07.875Z,9.27
2023-01-10T08:18:35.135Z,8.82
2023-01-10T08:21:01.902Z,9.25
2023-01-10T08:23:28.683Z,9.30
2023-01-10T08:25:58.832Z,9.60
2023-01-10T08:28:25.771Z,9.30
2023-01-10T08:30:52.812Z,9.80
2023-01-10T08:33:19.605Z,9.80
2023-01-10T08:35:46.408Z,9.90
2023-01-10T08:38:13.170Z,10.10
2023-01-10T08:40:39.962Z,9.85
2023-01-10T08:43:09.633Z,10.70
2023-01-10T08:45:37.605Z,11.20
2023-01-10T08:48:05.806Z,10.90
2023-01-10T08:50:32.626Z,10.52
2023-01-10T08:52:59.589Z,10.80
2023-01-10T08:55:27.136Z,10.13
2023-01-10T08:57:54.321Z,10.13
2023-01-10T09:00:21.580Z,10.23
2023-01-10T09:02:48.432Z,10.77
2023-01-10T09:05:26.258Z,10.50
2023-01-10T09:07:58.219Z,9.50
2023-01-10T09:10:24.988Z,12.10
2023-01-10T09:12:51.736Z,9.20
2023-01-10T09:15:18.606Z,10.35
2023-01-10T09:17:45.419Z,10.80
2023-01-10T09:20:12.443Z,9.70
2023-01-10T09:22:39.613Z,8.85
2023-01-10T09:25:06.968Z,9.52
2023-01-10T09:27:33.992Z,8.10
2023-01-10T09:30:00.753Z,8.10
2023-01-10T09:32:27.664Z,7.60
2023-01-10T09:34:54.407Z,7.30
2023-01-10T09:37:21.176Z,7.20
2023-01-10T09:39:47.973Z,6.38
2023-01-10T09:42:44.625Z,7.18
2023-01-10T09:45:25.637Z,6.88
2023-01-10T09:48:03.144Z,5.72
2023-01-10T09:53:46.631Z,6.20
2023-01-10T09:56:15.833Z,6.13
2023-01-10T09:58:44.528Z,5.70
2023-01-10T10:01:21.754Z,5.53
2023-01-10T10:04:17.576Z,5.13
2023-01-10T10:06:14.557Z,0
2023-01-10T10:06:44.459Z,5.65
2023-01-10T10:09:18.898Z,5.40
2023-01-10T10:12:09.639Z,5.20
2023-01-10T10:14:57.848Z,5.90
2023-01-10T10:24:06.480Z,5.13
2023-01-10T10:26:36.368Z,5.80
2023-01-10T10:29:14.368Z,5.00
2023-01-10T10:31:53.779Z,5.50
2023-01-10T10:37:33.714Z,5.40
2023-01-10T10:40:24.020Z,5.40
2023-01-10T10:42:56.027Z,5.47
2023-01-10T10:45:47.021Z,6.85
2023-01-10T10:48:20.240Z,5.90
2023-01-10T10:50:56.089Z,5.80
2023-01-10T10:53:22.905Z,5.03
2023-01-10T10:55:51.146Z,5.43
2023-01-10T10:58:18.802Z,5.60
2023-01-10T11:00:46.083Z,5.13
2023-01-10T11:06:10.597Z,5.32
2023-01-10T11:11:32.674Z,5.10
2023-01-10T11:14:02.262Z,5.00
2023-01-10T11:16:42.109Z,4.45
2023-01-10T11:19:26.348Z,5.05
2023-01-10T11:22:02.264Z,4.68
2023-01-10T11:27:45.745Z,5.30
2023-01-10T11:30:23.310Z,5.10
2023-01-10T11:36:55.112Z,0
2023-01-10T11:38:31.091Z,5.50
2023-01-10T11:41:03.088Z,5.20
2023-01-10T11:43:31.496Z,5.70
2023-01-10T11:46:02.085Z,5.03
2023-01-10T11:47:47.481Z,0
2023-01-10T11:49:10.029Z,5.32
2023-01-10T11:51:40.562Z,4.90
2023-01-10T11:54:13.051Z,5.55
2023-01-10T11:56:40.193Z,4.70
2023-01-10T11:59:11.012Z,5.03
2023-01-10T12:04:59.546Z,5.00
2023-01-10T12:10:21.634Z,5.20
2023-01-10T12:12:56.685Z,4.95
2023-01-10T12:15:28.804Z,5.00
2023-01-10T12:20:51.880Z,4.75
2023-01-10T12:23:22.913Z,4.80
2023-01-10T12:25:53.263Z,4.90
2023-01-10T12:31:16.560Z,4.78
2023-01-10T12:36:51.060Z,5.07
2023-01-10T12:39:32.766Z,5.00
2023-01-10T12:42:08.692Z,5.20
2023-01-10T12:44:44.383Z,5.47
2023-01-10T12:47:15.899Z,0
2023-01-10T12:47:26.341Z,5.30
2023-01-10T12:50:13.912Z,5.78
2023-01-10T12:52:49.353Z,5.10
2023-01-10T12:55:21.547Z,5.03
2023-01-10T12:57:52.284Z,5.30
2023-01-10T13:00:47.764Z,5.50
2023-01-10T13:03:25.576Z,5.65
2023-01-10T13:05:52.424Z,5.47
2023-01-10T13:08:23.661Z,5.30
2023-01-10T13:10:54.526Z,4.90
2023-01-10T13:13:34.895Z,5.20
2023-01-10T13:16:23.154Z,5.47
2023-01-10T13:19:01.669Z,5.60
2023-01-10T13:21:29.423Z,5.13
2023-01-10T13:24:05.072Z,5.63
2023-01-10T13:26:53.446Z,5.43
2023-01-10T13:29:26.026Z,5.10
2023-01-10T13:34:41.084Z,5.07
2023-01-10T13:37:25.954Z,5.28
2023-01-10T13:39:59.554Z,5.40
2023-01-10T13:45:30.594Z,5.30
2023-01-10T13:47:59.845Z,5.50
2023-01-10T13:50:26.599Z,6.40
2023-01-10T13:53:19.062Z,5.40
2023-01-10T13:55:45.821Z,5.90
2023-01-10T13:58:15.389Z,5.63
2023-01-10T14:00:55.385Z,5.40
2023-01-10T14:06:30.976Z,5.20
2023-01-10T14:11:58.855Z,5.10
2023-01-10T14:14:35.669Z,5.00
2023-01-10T14:17:25.661Z,5.20
2023-01-10T14:20:10.749Z,4.95
2023-01-10T14:22:40.479Z,5.30
2023-01-10T14:25:20.522Z,5.30
2023-01-10T14:27:50.959Z,5.70
2023-01-10T14:30:33.060Z,5.15
2023-01-10T14:33:21.869Z,5.10
2023-01-10T14:35:56.149Z,6.45
2023-01-10T14:38:24.790Z,5.15
2023-01-10T14:40:57.445Z,5.85
2023-01-10T14:43:28.575Z,6.18
2023-01-10T14:44:14.256Z,0
2023-01-10T14:46:17.726Z,5.50
2023-01-10T14:48:51.662Z,5.32
2023-01-10T14:51:31.398Z,5.30
2023-01-10T14:54:18.383Z,5.50
2023-01-10T14:56:47.889Z,5.28
2023-01-10T14:59:34.412Z,5.55
2023-01-10T15:02:04.526Z,5.30
2023-01-10T15:04:33.536Z,5.13
2023-01-10T15:07:03.171Z,5.38
2023-01-10T15:09:31.838Z,5.40
2023-01-10T15:12:01.926Z,4.93
2023-01-10T15:14:30.214Z,5.60
2023-01-10T15:17:01.383Z,5.20
2023-01-10T15:19:33.679Z,4.57
2023-01-10T15:22:00.523Z,5.20
2023-01-10T15:24:37.408Z,5.00
2023-01-10T15:27:06.509Z,7.45
2023-01-10T15:29:34.273Z,5.90
2023-01-10T15:32:10.479Z,5.30
2023-01-10T15:34:38.291Z,5.50
2023-01-10T15:37:07.251Z,5.53
2023-01-10T15:39:40.528Z,5.18
2023-01-10T15:42:10.073Z,4.90
2023-01-10T15:47:34.905Z,5.00
2023-01-10T15:50:02.178Z,5.13
2023-01-10T15:52:28.916Z,5.50
2023-01-10T15:54:55.825Z,5.90
2023-01-10T15:57:30.507Z,5.50
2023-01-10T15:59:57.919Z,5.67
2023-01-10T16:02:32.963Z,5.90
2023-01-10T16:05:15.302Z,5.53
2023-01-10T16:07:45.223Z,5.95
2023-01-10T16:10:26.989Z,6.15
2023-01-10T16:13:08.306Z,6.20
2023-01-10T16:15:37.643Z,6.20
2023-01-10T16:18:04.949Z,6.00
2023-01-10T16:20:34.594Z,5.80
2023-01-10T16:23:02.672Z,6.00
2023-01-10T16:25:35.423Z,6.03
2023-01-10T16:30:49.184Z,5.60
2023-01-10T16:36:18.988Z,6.10
2023-01-10T16:38:46.326Z,5.70
2023-01-10T16:41:13.948Z,6.03
2023-01-10T16:43:40.681Z,6.00
2023-01-10T16:46:07.468Z,6.30
2023-01-10T16:48:34.242Z,5.97
2023-01-10T16:54:05.903Z,5.90
2023-01-10T16:59:19.384Z,5.80
2023-01-10T17:04:40.224Z,6.85
2023-01-10T17:09:53.775Z,6.60
2023-01-10T17:15:11.414Z,7.47
2023-01-10T17:20:25.067Z,6.63
2023-01-10T17:22:51.861Z,7.00
2023-01-10T17:25:18.763Z,6.57
2023-01-10T17:27:45.506Z,6.72
2023-01-10T17:30:13.285Z,6.53
2023-01-10T17:32:40.740Z,6.50
2023-01-10T17:35:08.240Z,6.80
2023-01-10T17:37:35.897Z,7.23
2023-01-10T17:40:04.545Z,7.07
2023-01-10T17:42:31.528Z,7.20
2023-01-10T17:44:58.322Z,7.35
2023-01-10T17:47:25.090Z,7.10
2023-01-10T17:49:51.978Z,7.53
2023-01-10T17:52:18.818Z,7.47
2023-01-10T17:54:45.689Z,7.80
2023-01-10T17:57:12.470Z,7.63
2023-01-10T17:59:39.239Z,7.85
2023-01-10T18:04:52.987Z,8.65
2023-01-10T18:07:19.751Z,8.40
2023-01-10T18:09:46.544Z,7.60
2023-01-10T18:12:13.321Z,7.60
2023-01-10T18:14:40.079Z,7.50
2023-01-10T18:17:09.854Z,7.95
2023-01-10T18:19:36.799Z,8.27
2023-01-10T18:22:07.125Z,8.20
2023-01-10T18:24:33.940Z,7.72
2023-01-10T18:27:00.705Z,7.70
2023-01-10T18:29:27.523Z,7.90
2023-01-10T18:31:54.269Z,7.75
2023-01-10T18:34:21.108Z,8.27
2023-01-10T18:36:47.893Z,7.70
2023-01-10T18:39:14.693Z,8.00
2023-01-10T18:41:41.460Z,7.88
2023-01-10T18:44:08.229Z,7.60
2023-01-10T18:46:35.001Z,8.20
2023-01-10T18:49:01.751Z,8.43
2023-01-10T18:51:28.513Z,7.75
2023-01-10T18:53:55.290Z,7.82
2023-01-10T18:56:22.154Z,8.10
2023-01-10T18:58:48.925Z,7.90
2023-01-10T19:01:20.935Z,8.88
2023-01-10T19:03:48.138Z,8.10
2023-01-10T19:06:16.786Z,7.60
2023-01-10T19:08:45.583Z,7.03
2023-01-10T19:11:15.814Z,7.60
2023-01-10T19:13:44.577Z,7.43
2023-01-10T19:16:15.392Z,6.80
2023-01-10T19:21:31.802Z,6.32
2023-01-10T19:24:10.454Z,6.47
2023-01-10T19:26:37.257Z,6.00
2023-01-10T19:29:04.961Z,6.30
2023-01-10T19:31:32.053Z,6.13
2023-01-10T19:34:00.110Z,5.90
2023-01-10T19:36:27.768Z,5.90
2023-01-10T19:38:55.943Z,5.40
2023-01-10T19:41:23.852Z,5.28
2023-01-10T19:43:58.570Z,5.40
2023-01-10T19:46:26.262Z,5.50
2023-01-10T19:48:55.651Z,5.30
2023-01-10T19:54:10.192Z,5.15
2023-01-10T19:56:36.955Z,4.80
2023-01-10T19:59:04.074Z,4.50
2023-01-10T20:01:31.884Z,7.68
2023-01-10T20:06:48.331Z,3.90
2023-01-10T20:12:02.104Z,4.40
2023-01-10T20:14:28.912Z,4.13
2023-01-10T20:16:55.729Z,5.05
2023-01-10T20:19:22.558Z,3.55
2023-01-10T20:21:49.630Z,3.42
2023-01-10T20:24:19.913Z,3.70
2023-01-10T20:26:49.402Z,3.30
2023-01-10T20:32:03.789Z,3.60
2023-01-10T20:37:17.338Z,4.10
2023-01-10T20:39:44.065Z,3.15
2023-01-10T20:42:10.824Z,3.00
2023-01-10T20:44:37.583Z,3.00
2023-01-10T20:47:04.412Z,3.00
2023-01-10T20:49:31.212Z,2.70
2023-01-10T20:51:57.958Z,3.17
2023-01-10T20:54:24.710Z,3.38
2023-01-10T20:56:51.550Z,3.30
2023-01-10T20:59:18.399Z,3.13
2023-01-10T21:01:45.555Z,3.50
2023-01-10T21:04:12.414Z,2.80
2023-01-10T21:06:39.267Z,2.90
2023-01-10T21:09:06.149Z,2.72
2023-01-10T21:11:38.785Z,2.80
2023-01-10T21:14:11.100Z,2.72
2023-01-10T21:16:37.877Z,3.00
2023-01-10T21:19:04.661Z,2.80
2023-01-10T21:21:31.633Z,2.33
2023-01-10T21:23:58.431Z,2.50
2023-01-10T21:26:25.167Z,3.08
2023-01-10T21:28:51.998Z,5.25
2023-01-10T21:31:21.251Z,3.05
2023-01-10T21:33:48.465Z,3.43
2023-01-10T21:36:15.455Z,2.77
2023-01-10T21:38:42.340Z,2.60
2023-01-10T21:41:20.010Z,2.60
2023-01-10T21:43:46.778Z,2.80
2023-01-10T21:46:13.510Z,3.20
2023-01-10T21:48:40.280Z,2.60
2023-01-10T21:51:07.076Z,4.40
2023-01-10T21:53:33.804Z,3.10
2023-01-10T21:56:00.909Z,3.10
2023-01-10T21:58:27.670Z,2.50
2023-01-10T22:00:58.341Z,2.60
2023-01-10T22:03:25.229Z,2.75
2023-01-10T22:05:52.040Z,3.00
2023-01-10T22:08:18.897Z,2.90
2023-01-10T22:10:45.645Z,2.83
2023-01-10T22:13:12.466Z,2.60
2023-01-10T22:15:39.217Z,2.50
2023-01-10T22:18:06.026Z,2.90
2023-01-10T22:20:32.814Z,2.60
2023-01-10T22:22:59.551Z,2.30
2023-01-10T22:25:26.639Z,2.50
2023-01-10T22:27:53.416Z,2.70
2023-01-10T22:30:20.243Z,2.55
2023-01-10T22:32:46.991Z,3.10
2023-01-10T22:35:13.861Z,3.30
2023-01-10T22:37:41.008Z,2.90
2023-01-10T22:40:08.569Z,2.72
2023-01-10T22:42:35.363Z,2.75
2023-01-10T22:45:02.113Z,2.88
2023-01-10T22:50:17.480Z,3.07
2023-01-10T22:55:34.533Z,2.95
2023-01-10T23:00:51.654Z,2.80
2023-01-10T23:06:05.923Z,3.20
2023-01-10T23:08:33.261Z,2.80
2023-01-10T23:11:00.372Z,3.13
2023-01-10T23:13:27.136Z,3.33
2023-01-10T23:16:06.222Z,3.10
2023-01-10T23:18:34.244Z,3.10
2023-01-10T23:21:01.502Z,3.30
2023-01-10T23:23:28.714Z,2.95
2023-01-10T23:26:01.434Z,3.40
2023-01-10T23:28:42.959Z,3.20
2023-01-10T23:31:10.043Z,3.10
2023-01-10T23:33:36.897Z,3.30
2023-01-10T23:38:51.468Z,3.08
2023-01-10T23:44:05.131Z,2.90
2023-01-10T23:49:18.556Z,2.92
2023-01-10T23:51:45.316Z,2.90
2023-01-10T23:54:12.164Z,2.95
2023-01-10T23:56:38.931Z,3.15
2023-01-10T23:59:05.723Z,2.90
